Time;durP1;ratioP1;P1;durP2;ratioP2;P2;SDS_P1;SDS_P2;PMS_P1;PMS_P2;Temp;Humidity;BMP_temperature;BMP_pressure;BME280_temperature;BME280_humidity;BME280_pressure;Samples;Min_cycle;Max_cycle;Signal;HPM_P1;HPM_P2
2023/10/05 00:01:27;;;;;;;64.23;60.60;;;;;;;13.61;100.00;101569.06;5014266;28;20436;-42
2023/10/05 00:03:55;;;;;;;67.33;63.20;;;;;;;13.61;100.00;101561.00;5000276;28;20530;-42
2023/10/05 00:06:27;;;;;;;69.57;65.27;;;;;;;13.65;100.00;101544.31;4993755;28;20484;-41
2023/10/05 00:08:58;;;;;;;70.07;66.17;;;;;;;13.68;100.00;101557.34;4993398;28;20548;-44
2023/10/05 00:11:29;;;;;;;71.30;67.70;;;;;;;13.71;100.00;101548.91;4994082;28;20802;-42
2023/10/05 00:14:04;;;;;;;76.30;71.57;;;;;;;13.72;100.00;101547.03;4993326;28;20489;-41
2023/10/05 00:16:37;;;;;;;75.77;71.97;;;;;;;13.74;100.00;101548.50;4993960;28;20429;-42
2023/10/05 00:19:10;;;;;;;77.57;73.67;;;;;;;13.73;100.00;101552.22;4993124;28;20894;-41
2023/10/05 00:21:41;;;;;;;79.03;74.30;;;;;;;13.77;100.00;101545.44;4994046;28;20449;-43
2023/10/05 00:24:11;;;;;;;75.63;71.60;;;;;;;13.83;100.00;101541.94;4994163;28;20430;-40
2023/10/05 00:26:39;;;;;;;81.10;76.37;;;;;;;13.84;100.00;101537.41;4993872;28;20435;-43
2023/10/05 00:29:18;;;;;;;83.50;79.27;;;;;;;13.87;100.00;101531.66;4993048;28;20524;-41
2023/10/05 00:31:47;;;;;;;88.30;83.70;;;;;;;13.89;100.00;101531.47;4993749;28;20442;-42
2023/10/05 00:34:24;;;;;;;92.50;87.83;;;;;;;13.91;100.00;101527.56;4993495;28;20968;-40
2023/10/05 00:36:57;;;;;;;92.60;88.03;;;;;;;13.93;100.00;101517.47;4993584;28;20537;-42
2023/10/05 00:39:25;;;;;;;98.03;92.27;;;;;;;13.92;100.00;101515.00;4994556;28;21073;-42
2023/10/05 00:42:03;;;;;;;90.07;85.30;;;;;;;13.95;100.00;101509.22;5013312;28;20571;-40
2023/10/05 00:44:35;;;;;;;91.97;86.60;;;;;;;13.95;100.00;101512.72;5013207;28;20437;-42
2023/10/05 00:47:05;;;;;;;93.00;87.73;;;;;;;13.98;100.00;101506.16;5012818;28;20453;-42
2023/10/05 00:49:45;;;;;;;90.13;85.83;;;;;;;13.98;100.00;101503.47;4992926;28;20478;-40
2023/10/05 00:52:15;;;;;;;91.83;86.20;;;;;;;14.01;100.00;101495.03;4993112;28;20445;-42
2023/10/05 00:54:48;;;;;;;91.33;85.90;;;;;;;14.01;100.00;101495.81;4997846;28;20868;-48
2023/10/05 00:57:19;;;;;;;90.57;85.90;;;;;;;14.05;100.00;101497.09;5012708;28;20429;-43
2023/10/05 00:59:58;;;;;;;91.33;86.07;;;;;;;14.07;100.00;101495.03;5007337;28;20474;-42
2023/10/05 01:02:30;;;;;;;91.57;86.43;;;;;;;14.08;100.00;101493.19;4995008;28;20633;-42
2023/10/05 01:05:01;;;;;;;85.73;80.93;;;;;;;14.07;100.00;101491.50;5005898;28;20482;-42
2023/10/05 01:10:41;;;;;;;86.63;81.70;;;;;;;14.11;100.00;101492.78;4991990;28;20465;-48
2023/10/05 01:13:33;;;;;;;82.50;77.73;;;;;;;14.09;100.00;101476.91;5000294;28;20437;-43
2023/10/05 01:16:15;;;;;;;81.43;77.33;;;;;;;14.09;100.00;101476.91;5012389;28;20476;-43
2023/10/05 01:18:44;;;;;;;86.80;82.33;;;;;;;14.10;100.00;101478.53;4991905;28;20997;-42
2023/10/05 01:21:12;;;;;;;85.03;80.40;;;;;;;14.08;100.00;101479.75;4992139;28;20430;-43
2023/10/05 01:23:44;;;;;;;84.83;80.50;;;;;;;14.06;100.00;101468.41;5004293;28;20941;-40
2023/10/05 01:26:12;;;;;;;86.30;82.03;;;;;;;14.09;100.00;101470.69;5012132;28;20508;-42
2023/10/05 01:28:41;;;;;;;85.10;80.60;;;;;;;14.09;100.00;101470.69;4999203;28;20469;-42
2023/10/05 01:31:16;;;;;;;90.60;84.53;;;;;;;14.13;100.00;101469.25;4992415;28;20460;-41
2023/10/05 01:33:46;;;;;;;90.97;85.00;;;;;;;14.14;100.00;101468.22;4992529;28;20513;-44
2023/10/05 01:36:15;;;;;;;89.13;84.57;;;;;;;14.16;100.00;101458.13;4992367;28;20458;-40
2023/10/05 01:38:45;;;;;;;92.30;87.10;;;;;;;14.14;100.00;101468.22;4991917;28;20466;-42
2023/10/05 01:41:17;;;;;;;96.60;92.20;;;;;;;14.15;100.00;101461.84;5008307;28;20993;-43
2023/10/05 01:43:46;;;;;;;90.83;85.60;;;;;;;14.13;100.00;101464.72;5011965;28;20437;-45
2023/10/05 01:46:15;;;;;;;81.00;76.10;;;;;;;14.10;100.00;101469.66;5011681;28;20985;-41
2023/10/05 01:48:43;;;;;;;69.50;64.87;;;;;;;14.10;100.00;101451.72;4991337;28;20469;-42
2023/10/05 01:51:14;;;;;;;62.97;59.33;;;;;;;14.12;100.00;101459.56;4999449;28;20959;-40
2023/10/05 01:53:43;;;;;;;58.10;54.60;;;;;;;14.13;100.00;101462.03;4992209;28;20473;-45
2023/10/05 01:56:17;;;;;;;53.17;49.57;;;;;;;14.16;100.00;101456.25;4992448;28;20484;-40
2023/10/05 01:58:50;;;;;;;53.00;49.40;;;;;;;14.22;100.00;101457.31;4991049;28;20545;-42
2023/10/05 02:01:20;;;;;;;51.20;47.53;;;;;;;14.19;100.00;101441.63;5000694;28;20433;-44
2023/10/05 02:03:52;;;;;;;52.53;49.43;;;;;;;14.22;100.00;101454.63;5011860;28;20429;-41
2023/10/05 02:06:20;;;;;;;50.67;47.67;;;;;;;14.25;100.00;101433.59;5011285;28;20563;-42
2023/10/05 02:08:48;;;;;;;56.17;51.67;;;;;;;14.31;100.00;101443.50;4998082;28;20466;-44
2023/10/05 02:11:24;;;;;;;55.63;51.93;;;;;;;14.32;100.00;101433.59;4991851;28;20442;-39
2023/10/05 02:13:52;;;;;;;56.83;52.30;;;;;;;14.35;100.00;101433.22;4992083;28;20528;-44
2023/10/05 02:16:21;;;;;;;56.10;51.97;;;;;;;14.35;100.00;101427.88;5008341;28;20433;-42
2023/10/05 02:18:49;;;;;;;61.70;57.40;;;;;;;14.37;100.00;101436.53;5010440;28;20473;-39
2023/10/05 02:21:27;;;;;;;59.20;55.50;;;;;;;14.35;100.00;101439.44;5002985;28;20445;-39
2023/10/05 02:23:57;;;;;;;59.50;55.30;;;;;;;14.40;100.00;101436.94;5004767;28;20439;-42
2023/10/05 02:26:33;;;;;;;69.77;65.20;;;;;;;14.41;100.00;101445.84;5003039;28;20484;-42
2023/10/05 02:29:13;;;;;;;69.03;65.00;;;;;;;14.41;100.00;101448.50;5010414;28;21011;-41
2023/10/05 02:31:50;;;;;;;71.23;66.20;;;;;;;14.42;100.00;101452.03;4991601;28;20430;-42
2023/10/05 02:34:20;;;;;;;74.80;69.47;;;;;;;14.42;100.00;101454.72;4991147;28;20438;-39
2023/10/05 02:36:50;;;;;;;74.50;70.10;;;;;;;14.39;100.00;101458.63;4991307;28;20799;-42
2023/10/05 02:39:21;;;;;;;79.13;74.30;;;;;;;14.39;100.00;101451.38;4991017;28;20461;-41
2023/10/05 02:41:51;;;;;;;85.23;79.53;;;;;;;14.36;100.00;101467.09;4991609;28;20434;-42
2023/10/05 02:44:23;;;;;;;91.83;86.57;;;;;;;14.27;100.00;101487.06;4999838;28;20441;-43
2023/10/05 02:46:50;;;;;;;92.80;87.80;;;;;;;14.20;100.00;101489.72;5011345;28;20483;-40
2023/10/05 02:49:19;;;;;;;101.53;96.83;;;;;;;13.92;100.00;101494.34;5010095;28;20496;-38
2023/10/05 02:51:47;;;;;;;123.00;118.50;;;;;;;13.83;100.00;101496.38;4995782;28;20436;-41
2023/10/05 02:54:15;;;;;;;121.87;117.33;;;;;;;13.72;100.00;101488.91;5010898;28;20548;-42
2023/10/05 02:56:43;;;;;;;126.93;122.33;;;;;;;13.60;100.00;101500.38;5007993;28;20437;-41
2023/10/05 02:59:14;;;;;;;129.43;124.70;;;;;;;13.53;100.00;101500.34;5005907;28;20552;-43
2023/10/05 03:01:43;;;;;;;128.80;124.20;;;;;;;13.47;100.00;101501.13;5011179;28;20499;-41
2023/10/05 03:04:16;;;;;;;125.97;121.27;;;;;;;13.39;100.00;101505.81;5011243;28;20444;-40
2023/10/05 03:06:48;;;;;;;125.00;120.60;;;;;;;13.28;100.00;101510.72;5002804;28;20472;-39
2023/10/05 03:09:18;;;;;;;126.57;121.90;;;;;;;13.27;100.00;101514.41;5010236;28;20976;-43
2023/10/05 03:11:46;;;;;;;120.20;115.80;;;;;;;13.30;100.00;101519.38;5010458;28;20495;-43
2023/10/05 03:14:16;;;;;;;119.33;114.73;;;;;;;13.30;100.00;101518.53;5010665;28;20832;-43
2023/10/05 03:16:47;;;;;;;118.60;113.93;;;;;;;13.25;100.00;101521.81;5007254;28;20426;-46
2023/10/05 03:19:20;;;;;;;114.27;109.97;;;;;;;13.24;100.00;101519.31;4998018;28;20493;-42
2023/10/05 03:21:50;;;;;;;109.37;105.27;;;;;;;13.20;100.00;101516.19;4991608;28;20866;-44
2023/10/05 03:24:19;;;;;;;109.67;105.27;;;;;;;13.25;100.00;101510.28;5006815;28;20436;-46
2023/10/05 03:26:48;;;;;;;113.70;109.60;;;;;;;13.32;100.00;101521.03;5003525;28;20473;-47
2023/10/05 03:29:17;;;;;;;107.30;103.70;;;;;;;13.32;100.00;101524.53;4990447;28;20553;-42
2023/10/05 03:31:53;;;;;;;106.20;102.20;;;;;;;13.36;100.00;101523.13;4990897;28;20442;-39
2023/10/05 03:34:25;;;;;;;105.03;101.33;;;;;;;13.37;100.00;101526.63;5007825;28;20436;-41
2023/10/05 03:36:54;;;;;;;105.43;101.63;;;;;;;13.40;100.00;101519.03;5010868;28;20852;-41
2023/10/05 03:39:23;;;;;;;97.17;93.37;;;;;;;13.35;100.00;101512.59;5009754;28;20841;-43
2023/10/05 03:41:50;;;;;;;92.93;89.43;;;;;;;13.31;100.00;101517.53;5010481;28;20437;-48
2023/10/05 03:44:21;;;;;;;95.70;92.30;;;;;;;13.31;100.00;101530.91;5010644;28;20468;-42
2023/10/05 03:46:48;;;;;;;81.03;77.83;;;;;;;13.18;100.00;101537.00;4990910;28;20550;-41
2023/10/05 03:49:21;;;;;;;78.40;75.30;;;;;;;13.12;100.00;101528.91;4991142;28;20520;-38
2023/10/05 03:51:50;;;;;;;79.80;76.70;;;;;;;13.09;100.00;101521.25;4994475;28;20524;-41
2023/10/05 03:54:18;;;;;;;91.67;88.23;;;;;;;13.04;100.00;101521.81;5010511;28;20487;-42
2023/10/05 03:56:50;;;;;;;97.30;93.50;;;;;;;13.02;100.00;101518.50;5005853;28;20440;-42
2023/10/05 03:59:18;;;;;;;89.93;86.50;;;;;;;12.97;100.00;101528.97;4997637;28;20470;-41
2023/10/05 04:01:49;;;;;;;93.17;89.70;;;;;;;13.00;100.00;101541.13;4994290;28;20438;-41
2023/10/05 04:04:21;;;;;;;102.47;98.80;;;;;;;13.01;100.00;101542.78;5009939;28;20439;-42
2023/10/05 04:06:51;;;;;;;102.53;98.63;;;;;;;13.01;100.00;101543.63;5009956;28;20473;-41
2023/10/05 04:09:19;;;;;;;101.07;97.20;;;;;;;13.07;100.00;101558.09;4993531;28;20497;-43
2023/10/05 04:11:48;;;;;;;110.87;106.70;;;;;;;13.10;100.00;101558.56;4993926;28;20446;-41
2023/10/05 04:14:15;;;;;;;104.10;100.20;;;;;;;13.18;100.00;101557.59;5001535;28;20446;-39
2023/10/05 04:16:43;;;;;;;110.70;106.70;;;;;;;13.18;100.00;101558.41;5013636;28;20428;-44
2023/10/05 04:19:12;;;;;;;104.90;100.90;;;;;;;13.18;100.00;101547.72;5013202;28;20503;-42
2023/10/05 04:21:41;;;;;;;115.17;110.93;;;;;;;13.22;100.00;101557.03;5013482;28;20529;-42
2023/10/05 04:24:14;;;;;;;105.70;101.80;;;;;;;13.21;100.00;101568.75;5006930;28;20972;-42
2023/10/05 04:26:45;;;;;;;108.57;104.47;;;;;;;13.17;100.00;101564.00;4993309;28;20993;-43
2023/10/05 04:29:14;;;;;;;103.37;99.30;;;;;;;13.19;100.00;101564.63;4993293;28;20469;-41
2023/10/05 04:31:48;;;;;;;106.80;103.00;;;;;;;13.20;100.00;101558.25;4993731;28;20438;-43
2023/10/05 04:34:19;;;;;;;108.33;104.17;;;;;;;13.18;100.00;101557.59;4993757;28;20438;-42
2023/10/05 04:36:48;;;;;;;107.13;103.33;;;;;;;13.17;100.00;101558.63;5013108;28;20490;-42
2023/10/05 04:39:25;;;;;;;106.50;102.40;;;;;;;13.14;100.00;101554.47;5011878;28;20548;-39
2023/10/05 04:41:55;;;;;;;107.93;104.03;;;;;;;13.14;100.00;101557.16;5013121;28;20956;-43
2023/10/05 04:44:23;;;;;;;112.70;108.60;;;;;;;13.13;100.00;101560.03;5004855;28;20433;-42
2023/10/05 04:46:51;;;;;;;107.07;103.30;;;;;;;13.12;100.00;101566.41;5005521;28;20531;-45
2023/10/05 04:49:21;;;;;;;109.10;105.10;;;;;;;13.13;100.00;101570.75;5011898;28;20467;-41
2023/10/05 04:51:51;;;;;;;111.40;107.20;;;;;;;13.13;100.00;101562.72;4993042;28;20442;-42
2023/10/05 04:54:19;;;;;;;113.20;109.20;;;;;;;13.14;100.00;101565.19;4993120;28;20947;-42
2023/10/05 04:57:06;;;;;;;123.23;118.93;;;;;;;13.12;100.00;101561.03;4993001;28;20430;-43
2023/10/05 04:59:59;;;;;;;124.23;119.50;;;;;;;13.10;100.00;101571.13;4991807;28;20470;-42
2023/10/05 05:02:57;;;;;;;128.67;124.10;;;;;;;13.09;100.00;101564.09;5009561;28;20456;-40
2023/10/05 05:05:35;;;;;;;134.97;129.27;;;;;;;13.07;100.00;101563.44;5012616;28;20933;-42
2023/10/05 05:08:03;;;;;;;129.10;124.20;;;;;;;13.08;100.00;101567.81;4997791;28;20893;-43
2023/10/05 05:10:31;;;;;;;138.67;133.67;;;;;;;13.04;100.00;101574.53;5011621;28;20984;-41
2023/10/05 05:12:59;;;;;;;132.17;127.20;;;;;;;13.05;100.00;101574.34;5012242;28;20519;-41
2023/10/05 05:15:28;;;;;;;137.47;130.50;;;;;;;13.05;100.00;101571.66;5012118;28;20440;-40
2023/10/05 05:17:56;;;;;;;126.47;121.73;;;;;;;13.06;100.00;101569.81;5007984;28;20477;-45
2023/10/05 05:20:25;;;;;;;129.43;124.63;;;;;;;13.10;100.00;101581.84;4999875;28;20489;-42
2023/10/05 05:22:53;;;;;;;125.10;120.40;;;;;;;13.13;100.00;101574.25;4992906;28;20445;-42
2023/10/05 05:25:21;;;;;;;129.00;124.00;;;;;;;13.15;100.00;101584.75;5000097;28;20461;-42
2023/10/05 05:27:48;;;;;;;133.23;127.73;;;;;;;13.14;100.00;101577.75;5003756;28;20483;-46
2023/10/05 05:30:24;;;;;;;134.83;130.07;;;;;;;13.14;100.00;101583.13;5011456;28;20463;-45
2023/10/05 05:32:54;;;;;;;134.47;129.50;;;;;;;13.15;100.00;101582.06;4992497;28;20529;-42
2023/10/05 05:35:22;;;;;;;135.30;130.30;;;;;;;13.16;100.00;101581.91;4992345;28;21012;-42
2023/10/05 05:37:51;;;;;;;132.77;127.83;;;;;;;13.14;100.00;101589.28;5003542;28;20504;-43
2023/10/05 05:40:19;;;;;;;134.60;129.50;;;;;;;13.16;100.00;101589.09;5011330;28;20548;-43
2023/10/05 05:42:46;;;;;;;138.00;133.03;;;;;;;13.17;100.00;101591.56;5003656;28;20452;-43
2023/10/05 05:45:16;;;;;;;129.63;124.73;;;;;;;13.20;100.00;101593.88;5011800;28;20432;-45
2023/10/05 05:47:45;;;;;;;134.97;129.63;;;;;;;13.25;100.00;101591.47;5011968;28;20496;-43
2023/10/05 05:50:17;;;;;;;134.87;129.73;;;;;;;13.27;100.00;101584.03;5010997;28;20511;-42
2023/10/05 05:52:47;;;;;;;137.57;132.40;;;;;;;13.28;100.00;101591.06;5011759;28;20464;-40
2023/10/05 05:55:20;;;;;;;134.70;129.27;;;;;;;13.28;100.00;101591.06;5011565;28;20441;-40
2023/10/05 05:57:50;;;;;;;137.40;132.20;;;;;;;13.30;100.00;101599.72;5011212;28;20928;-42
2023/10/05 06:00:19;;;;;;;139.80;134.57;;;;;;;13.28;100.00;101592.91;5010961;28;20487;-40
2023/10/05 06:02:47;;;;;;;145.77;140.37;;;;;;;13.28;100.00;101599.09;4992506;28;20494;-40
2023/10/05 06:05:16;;;;;;;139.43;134.50;;;;;;;13.27;100.00;101599.28;5006690;28;20805;-40
2023/10/05 06:07:44;;;;;;;142.57;136.97;;;;;;;13.27;100.00;101605.47;5010935;28;21190;-40
2023/10/05 06:10:13;;;;;;;149.97;143.77;;;;;;;13.27;100.00;101618.03;5010932;28;20491;-47
2023/10/05 06:12:48;;;;;;;143.33;137.70;;;;;;;13.30;100.00;101620.34;5010570;28;20906;-45
2023/10/05 06:15:15;;;;;;;141.00;135.80;;;;;;;13.44;100.00;101626.66;5004732;28;20766;-40
2023/10/05 06:17:44;;;;;;;142.40;137.10;;;;;;;13.49;100.00;101630.41;5010475;28;20433;-39
2023/10/05 06:20:14;;;;;;;145.10;139.37;;;;;;;13.54;100.00;101629.81;5011209;28;20472;-42
2023/10/05 06:22:44;;;;;;;145.90;140.63;;;;;;;13.65;100.00;101631.97;5003595;28;20441;-42
2023/10/05 06:25:14;;;;;;;144.37;139.00;;;;;;;13.73;100.00;101635.31;5011711;28;20530;-44
2023/10/05 06:27:43;;;;;;;140.20;134.80;;;;;;;13.79;100.00;101642.59;5001545;28;20441;-42
2023/10/05 06:30:13;;;;;;;148.77;143.27;;;;;;;13.87;100.00;101649.63;4991492;28;20516;-44
2023/10/05 06:32:42;;;;;;;148.63;143.13;;;;;;;13.95;100.00;101643.31;4992062;28;20438;-44
2023/10/05 06:35:12;;;;;;;152.93;147.23;;;;;;;14.06;100.00;101643.59;4992063;28;20438;-43
2023/10/05 06:37:40;;;;;;;148.43;142.90;;;;;;;14.16;100.00;101654.75;4991902;28;20440;-42
2023/10/05 06:40:10;;;;;;;155.63;149.53;;;;;;;14.16;100.00;101656.63;4991234;28;20549;-44
2023/10/05 06:42:39;;;;;;;149.53;143.60;;;;;;;14.21;100.00;101656.88;4991985;28;20438;-43
2023/10/05 06:45:08;;;;;;;147.73;142.70;;;;;;;14.26;100.00;101657.09;4992267;28;20807;-43
2023/10/05 06:47:37;;;;;;;146.07;140.37;;;;;;;14.31;100.00;101670.72;4991612;28;20469;-43
2023/10/05 06:50:08;;;;;;;143.37;138.30;;;;;;;14.46;100.00;101666.09;4991189;28;20469;-40
2023/10/05 06:52:41;;;;;;;150.07;144.27;;;;;;;14.53;100.00;101666.97;4992545;28;20433;-44
2023/10/05 06:55:09;;;;;;;142.17;136.70;;;;;;;14.59;100.00;101665.34;5011661;28;20524;-43
2023/10/05 06:57:37;;;;;;;137.57;132.33;;;;;;;14.69;100.00;101677.38;5011269;28;20432;-42
2023/10/05 07:00:11;;;;;;;140.43;135.57;;;;;;;14.74;100.00;101674.06;5010793;28;20464;-41
2023/10/05 07:02:41;;;;;;;132.60;127.80;;;;;;;14.79;100.00;101672.44;5011327;28;20437;-40
2023/10/05 07:05:10;;;;;;;118.33;113.73;;;;;;;14.86;100.00;101675.97;5011494;28;20838;-41
2023/10/05 07:07:40;;;;;;;119.90;115.30;;;;;;;14.93;100.00;101676.81;5011379;28;20490;-41
2023/10/05 07:10:10;;;;;;;119.67;115.60;;;;;;;15.17;100.00;101686.16;5010836;28;20465;-39
2023/10/05 07:12:40;;;;;;;112.70;108.00;;;;;;;15.45;100.00;101694.91;5011096;28;20441;-39
2023/10/05 07:15:10;;;;;;;113.87;109.67;;;;;;;15.70;100.00;101700.53;5006213;28;20488;-40
2023/10/05 07:17:38;;;;;;;106.93;103.23;;;;;;;15.86;100.00;101692.03;4991473;28;20976;-44
2023/10/05 07:20:11;;;;;;;100.83;96.93;;;;;;;16.09;100.00;101688.91;4990963;28;20465;-40
2023/10/05 07:22:40;;;;;;;100.00;96.10;;;;;;;16.40;100.00;101697.09;5009162;28;20437;-42
2023/10/05 07:25:10;;;;;;;107.17;102.90;;;;;;;16.67;100.00;101697.03;5010101;28;20437;-39
2023/10/05 07:27:39;;;;;;;102.33;98.47;;;;;;;16.87;100.00;101698.63;5004220;28;20522;-44
2023/10/05 07:30:09;;;;;;;91.17;87.47;;;;;;;17.03;100.00;101684.66;5005823;28;20468;-46
2023/10/05 07:32:38;;;;;;;85.70;81.50;;;;;;;17.03;100.00;101686.50;5014807;28;20436;-41
2023/10/05 07:35:10;;;;;;;84.20;80.30;;;;;;;17.07;100.00;101690.44;5006578;28;20436;-47
2023/10/05 07:37:37;;;;;;;85.40;81.90;;;;;;;17.06;100.00;101700.38;5005736;28;20438;-41
2023/10/05 07:40:07;;;;;;;87.07;82.87;;;;;;;16.91;100.00;101702.53;5002504;28;21146;-48
2023/10/05 07:42:37;;;;;;;81.53;77.80;;;;;;;16.89;100.00;101706.50;4994867;28;20464;-44
2023/10/05 07:45:07;;;;;;;81.43;77.93;;;;;;;16.97;100.00;101714.31;4994808;28;20517;-41
2023/10/05 07:47:41;;;;;;;73.40;70.30;;;;;;;17.07;100.00;101706.59;4995353;28;20441;-48
2023/10/05 07:50:11;;;;;;;73.80;70.20;;;;;;;17.08;100.00;101714.47;4994286;28;20493;-43
2023/10/05 07:52:42;;;;;;;71.00;67.30;;;;;;;17.08;100.00;101719.84;4994781;28;20929;-47
2023/10/05 07:55:10;;;;;;;68.40;65.03;;;;;;;17.11;100.00;101719.41;5007925;28;20539;-42
2023/10/05 07:57:39;;;;;;;57.57;54.47;;;;;;;17.10;100.00;101725.03;4997452;28;20438;-42
2023/10/05 08:00:11;;;;;;;67.60;64.20;;;;;;;17.07;100.00;101730.88;5006672;28;20543;-42
2023/10/05 08:02:40;;;;;;;58.73;55.83;;;;;;;17.12;100.00;101737.25;5013333;28;20440;-40
2023/10/05 08:05:12;;;;;;;51.33;48.80;;;;;;;17.01;100.00;101735.25;4994602;28;20558;-42
2023/10/05 08:07:41;;;;;;;53.03;50.13;;;;;;;16.96;100.00;101729.69;4994578;28;20426;-45
2023/10/05 08:10:15;;;;;;;55.53;52.83;;;;;;;16.98;100.00;101741.06;4993785;28;20470;-44
2023/10/05 08:12:44;;;;;;;58.73;55.50;;;;;;;16.99;100.00;101745.38;4994440;28;20441;-43
2023/10/05 08:15:14;;;;;;;55.47;52.50;;;;;;;16.98;100.00;101751.84;4994533;28;20930;-42
2023/10/05 08:17:41;;;;;;;52.80;49.97;;;;;;;17.01;100.00;101756.81;4994330;28;20426;-43
2023/10/05 08:20:12;;;;;;;52.60;49.87;;;;;;;17.03;100.00;101767.34;4993277;28;20477;-41
2023/10/05 08:22:39;;;;;;;54.03;50.97;;;;;;;17.01;100.00;101772.13;4994295;28;20438;-42
2023/10/05 08:25:11;;;;;;;47.43;44.60;;;;;;;16.97;100.00;101769.03;4994510;28;20437;-41
2023/10/05 08:27:39;;;;;;;53.13;50.13;;;;;;;17.07;100.00;101773.97;5002746;28;20439;-42
2023/10/05 08:30:08;;;;;;;49.37;46.83;;;;;;;17.01;100.00;101772.13;5013123;28;20554;-46
2023/10/05 08:32:37;;;;;;;45.40;42.70;;;;;;;16.78;100.00;101761.88;5013474;28;20942;-40
2023/10/05 08:35:12;;;;;;;40.63;38.30;;;;;;;16.63;100.00;101765.84;5012796;28;20437;-42
2023/10/05 08:37:49;;;;;;;43.93;40.97;;;;;;;16.62;100.00;101775.78;4996460;28;21083;-41
2023/10/05 08:43:08;;;;;;;40.87;38.63;;;;;;;16.67;100.00;101785.91;5002585;28;20468;-40
2023/10/05 08:45:45;;;;;;;44.13;41.80;;;;;;;16.69;100.00;101786.56;5005066;28;20440;-41
2023/10/05 08:48:28;;;;;;;43.23;40.07;;;;;;;16.75;100.00;101791.09;4993418;28;20516;-43
2023/10/05 08:51:04;;;;;;;39.10;36.80;;;;;;;16.69;100.00;101794.63;5021201;28;21197;-43
2023/10/05 08:53:35;;;;;;;37.00;34.80;;;;;;;16.61;100.00;101805.66;5021464;28;20487;-42
2023/10/05 08:56:03;;;;;;;44.70;41.90;;;;;;;16.78;100.00;101814.91;5013231;28;20487;-42
2023/10/05 08:58:34;;;;;;;37.70;35.70;;;;;;;16.80;100.00;101815.53;5020548;28;20528;-41
2023/10/05 09:01:21;;;;;;;34.33;32.73;;;;;;;16.68;100.00;101820.75;5013332;28;20429;-42
2023/10/05 09:03:53;;;;;;;35.03;33.00;;;;;;;16.48;100.00;101818.06;5021124;28;20444;-40
2023/10/05 09:06:21;;;;;;;37.93;35.70;;;;;;;16.51;100.00;101819.50;5013035;28;21051;-40
2023/10/05 09:09:01;;;;;;;34.70;32.00;;;;;;;16.48;100.00;101825.31;5020558;28;20461;-41
2023/10/05 09:11:31;;;;;;;35.23;33.63;;;;;;;16.45;100.00;101825.72;5012815;28;20888;-44
2023/10/05 09:14:13;;;;;;;37.30;35.20;;;;;;;16.71;100.00;101832.94;5013112;28;20504;-43
2023/10/05 09:16:42;;;;;;;37.20;34.77;;;;;;;16.78;100.00;101840.00;5012703;28;20925;-45
2023/10/05 09:19:15;;;;;;;32.83;30.70;;;;;;;16.77;100.00;101838.34;5016332;28;20521;-43
2023/10/05 09:21:45;;;;;;;37.77;35.60;;;;;;;16.91;100.00;101852.59;5015373;28;20808;-41
2023/10/05 09:24:20;;;;;;;33.93;31.67;;;;;;;17.02;100.00;101846.56;5012628;28;20932;-43
2023/10/05 09:26:52;;;;;;;35.60;32.90;;;;;;;16.94;100.00;101855.69;5019460;28;20450;-46
2023/10/05 09:29:21;;;;;;;35.43;33.40;;;;;;;17.10;100.00;101852.53;5017692;28;20488;-43
2023/10/05 09:31:54;;;;;;;34.50;32.20;;;;;;;17.42;100.00;101845.34;5013983;28;20435;-42
2023/10/05 09:34:44;;;;;;;35.50;33.50;;;;;;;17.79;100.00;101846.44;5017972;28;20437;-42
2023/10/05 09:37:13;;;;;;;36.27;34.30;;;;;;;17.73;100.00;101852.69;5012297;28;20528;-43
2023/10/05 09:39:44;;;;;;;34.53;32.00;;;;;;;17.59;100.00;101841.13;5019790;28;20604;-40
2023/10/05 09:42:17;;;;;;;32.40;30.20;;;;;;;17.68;100.00;101852.53;5025288;28;20432;-41
2023/10/05 09:44:52;;;;;;;29.70;28.30;;;;;;;17.39;100.00;101864.66;5022950;28;20433;-41
2023/10/05 09:47:25;;;;;;;33.13;31.00;;;;;;;16.81;100.00;101863.81;5012199;28;20967;-41
2023/10/05 09:49:56;;;;;;;33.13;30.87;;;;;;;16.52;100.00;101870.44;5011335;28;20504;-42
2023/10/05 09:52:34;;;;;;;32.43;30.33;;;;;;;16.17;100.00;101885.13;5012581;28;20432;-40
2023/10/05 09:55:06;;;;;;;34.63;32.13;;;;;;;16.09;100.00;101879.97;5023768;28;20435;-41
2023/10/05 09:57:41;;;;;;;34.83;33.00;;;;;;;16.03;100.00;101883.47;5016161;28;20437;-41
2023/10/05 10:00:27;;;;;;;33.80;31.60;;;;;;;16.35;100.00;101881.84;5019444;28;20460;-43
2023/10/05 10:02:57;;;;;;;36.23;34.10;;;;;;;16.75;100.00;101886.22;5014107;28;20456;-40
2023/10/05 10:05:30;;;;;;;30.90;29.40;;;;;;;16.98;100.00;101881.19;5017382;28;20437;-43
2023/10/05 10:08:07;;;;;;;33.63;31.70;;;;;;;17.27;100.00;101887.94;5011811;28;20955;-45
2023/10/05 10:10:48;;;;;;;31.97;29.97;;;;;;;17.66;100.00;101885.09;5011125;28;21377;-40
2023/10/05 10:13:16;;;;;;;30.37;28.67;;;;;;;17.82;100.00;101877.53;5012031;28;21157;-42
2023/10/05 10:15:49;;;;;;;29.57;27.87;;;;;;;18.12;100.00;101886.69;5012022;28;20429;-42
2023/10/05 10:18:21;;;;;;;29.20;27.50;;;;;;;17.94;100.00;101895.53;5011041;28;20867;-41
2023/10/05 10:20:56;;;;;;;27.53;26.17;;;;;;;17.14;100.00;101904.97;5011528;28;20435;-40
2023/10/05 10:23:35;;;;;;;27.23;25.87;;;;;;;16.79;100.00;101900.06;5011966;28;20791;-44
2023/10/05 10:26:16;;;;;;;26.97;25.57;;;;;;;16.40;100.00;101907.09;5012583;28;20432;-42
2023/10/05 10:28:56;;;;;;;29.13;26.93;;;;;;;16.57;100.00;101910.25;5021954;28;20901;-42
2023/10/05 10:31:42;;;;;;;27.13;25.93;;;;;;;16.56;100.00;101913.97;5019046;28;20568;-42
2023/10/05 10:34:18;;;;;;;28.20;26.90;;;;;;;17.08;100.00;101910.41;5019931;28;20444;-41
2023/10/05 10:36:51;;;;;;;25.70;24.60;;;;;;;17.03;100.00;101913.72;5011747;28;20522;-42
2023/10/05 10:39:24;;;;;;;24.80;23.77;;;;;;;16.79;100.00;101922.44;5010879;28;20464;-39
2023/10/05 10:42:09;;;;;;;25.17;23.93;;;;;;;16.80;100.00;101917.91;5013336;28;20435;-42
2023/10/05 10:44:57;;;;;;;27.07;25.60;;;;;;;16.92;100.00;101914.38;5023983;28;20437;-40
2023/10/05 10:47:27;;;;;;;25.43;24.30;;;;;;;17.17;100.00;101924.47;5011663;28;20520;-43
2023/10/05 10:50:10;;;;;;;25.60;24.23;;;;;;;17.48;100.00;101929.97;5010457;28;20563;-42
2023/10/05 10:52:38;;;;;;;27.03;25.53;;;;;;;17.65;100.00;101928.50;5011673;28;20443;-42
2023/10/05 10:55:09;;;;;;;26.37;24.70;;;;;;;17.92;100.00;101930.00;5015016;28;20773;-42
2023/10/05 10:57:39;;;;;;;26.30;24.60;;;;;;;17.97;100.00;101924.78;5015798;28;20456;-46
2023/10/05 11:02:55;;;;;;;28.43;26.80;;;;;;;18.41;100.00;101929.28;5015165;28;20495;-41
2023/10/05 11:05:36;;;;;;;25.83;24.80;;;;;;;18.51;100.00;101936.91;5023748;28;20495;-47
2023/10/05 11:08:08;;;;;;;24.80;23.70;;;;;;;18.49;100.00;101931.72;5014985;28;20526;-40
2023/10/05 11:10:36;;;;;;;25.63;24.10;;;;;;;18.44;100.00;101922.59;5014662;28;20523;-40
2023/10/05 11:13:14;;;;;;;26.50;25.00;;;;;;;18.55;100.00;101921.91;5015092;28;20436;-42
2023/10/05 11:15:50;;;;;;;24.80;23.30;;;;;;;18.57;100.00;101917.13;5023312;28;20824;-43
2023/10/05 11:18:18;;;;;;;25.53;23.90;;;;;;;18.40;100.00;101918.69;5027207;28;20431;-42
2023/10/05 11:20:52;;;;;;;24.50;22.97;;;;;;;18.39;100.00;101919.72;5018094;28;20439;-40
2023/10/05 11:23:25;;;;;;;24.70;23.10;;;;;;;18.59;100.00;101931.22;5014889;28;20464;-48
2023/10/05 11:26:13;;;;;;;20.70;19.40;;;;;;;18.20;100.00;101933.16;5015063;28;20443;-41